Time;durP1;ratioP1;P1;durP2;ratioP2;P2;SDS_P1;SDS_P2;PMS_P1;PMS_P2;Temp;Humidity;BMP_temperature;BMP_pressure;BME280_temperature;BME280_humidity;BME280_pressure;Samples;Min_cycle;Max_cycle;Signal;HPM_P1;HPM_P2
2024/01/21 00:02:14;;;;;;;10.88;4.72;;;1.00;99.90;;;;;;4973580;28;20140;-83
2024/01/21 00:04:40;;;;;;;12.05;4.75;;;1.00;99.90;;;;;;4973986;28;20531;-83
2024/01/21 00:07:07;;;;;;;10.65;4.72;;;1.00;99.90;;;;;;4973059;28;20415;-83
2024/01/21 00:09:33;;;;;;;10.07;4.57;;;1.70;99.90;;;;;;4979586;28;20048;-83
2024/01/21 00:11:59;;;;;;;9.75;4.30;;;1.90;99.90;;;;;;5022357;28;20525;-83
2024/01/21 00:14:25;;;;;;;9.27;4.13;;;1.10;99.90;;;;;;4961537;28;20046;-83
2024/01/21 00:16:50;;;;;;;9.60;4.22;;;2.20;99.90;;;;;;4973178;28;20038;-83
2024/01/21 00:19:16;;;;;;;10.07;4.45;;;1.20;99.90;;;;;;4984810;28;20038;-83
2024/01/21 00:21:42;;;;;;;11.20;4.60;;;1.70;99.90;;;;;;4941054;28;20038;-83
2024/01/21 00:24:08;;;;;;;10.25;4.88;;;2.00;99.90;;;;;;4941428;28;20475;-83
2024/01/21 00:26:33;;;;;;;10.80;5.03;;;1.40;99.90;;;;;;4955133;28;20058;-83
2024/01/21 00:29:00;;;;;;;11.23;5.07;;;0.90;99.90;;;;;;5026518;28;20073;-83
2024/01/21 00:31:29;;;;;;;11.30;4.82;;;1.50;99.90;;;;;;4965901;28;20068;-83
2024/01/21 00:33:55;;;;;;;11.63;5.20;;;1.90;99.90;;;;;;5000345;28;20035;-83
2024/01/21 00:36:21;;;;;;;10.73;5.18;;;0.90;99.90;;;;;;5001653;28;20107;-83
2024/01/21 00:38:46;;;;;;;10.95;5.40;;;1.30;99.90;;;;;;4969545;28;20050;-83
2024/01/21 00:41:13;;;;;;;11.13;5.53;;;1.60;99.90;;;;;;4954630;28;20042;-83
2024/01/21 00:43:39;;;;;;;10.10;4.80;;;0.80;99.90;;;;;;4969908;28;20272;-83
2024/01/21 00:46:05;;;;;;;11.10;5.60;;;0.80;99.90;;;;;;5002129;28;20115;-83
2024/01/21 00:48:31;;;;;;;13.20;6.07;;;0.80;99.90;;;;;;4958560;28;20034;-83
2024/01/21 00:50:57;;;;;;;13.32;5.88;;;1.10;99.90;;;;;;4956507;28;20040;-83
2024/01/21 00:53:23;;;;;;;11.43;5.35;;;0.70;99.90;;;;;;4919896;28;20039;-83
2024/01/21 00:55:49;;;;;;;13.82;6.00;;;1.90;99.90;;;;;;4949459;28;20377;-83
2024/01/21 00:58:14;;;;;;;12.68;5.95;;;1.00;99.90;;;;;;4982695;28;20042;-83
2024/01/21 01:00:40;;;;;;;11.65;5.82;;;0.70;99.90;;;;;;4958221;28;20748;-83
2024/01/21 01:03:06;;;;;;;12.60;5.80;;;1.20;99.90;;;;;;4941397;28;20043;-83
2024/01/21 01:05:32;;;;;;;12.70;6.00;;;1.20;99.90;;;;;;4984374;28;20539;-83
2024/01/21 01:07:58;;;;;;;11.35;5.60;;;2.50;99.90;;;;;;5000369;28;20043;-83
2024/01/21 01:10:24;;;;;;;11.45;5.95;;;0.70;99.90;;;;;;4955899;28;20424;-83
2024/01/21 01:12:49;;;;;;;12.00;6.13;;;0.70;99.90;;;;;;4952315;28;20101;-83
2024/01/21 01:15:15;;;;;;;12.70;5.80;;;2.40;99.90;;;;;;4985540;28;20508;-83
2024/01/21 01:17:41;;;;;;;12.27;5.28;;;1.40;99.90;;;;;;4961584;28;20130;-83
2024/01/21 01:20:07;;;;;;;12.25;5.88;;;0.70;99.90;;;;;;5009371;28;20413;-83
2024/01/21 01:22:33;;;;;;;13.73;5.88;;;0.70;99.90;;;;;;4998474;28;20046;-83
2024/01/21 01:24:59;;;;;;;11.15;5.95;;;0.70;99.90;;;;;;4963615;28;20057;-84
2024/01/21 01:27:25;;;;;;;10.30;5.10;;;0.70;99.90;;;;;;4950441;28;20122;-83
2024/01/21 01:29:51;;;;;;;12.30;5.30;;;2.20;99.90;;;;;;4944868;28;20831;-84
2024/01/21 01:32:17;;;;;;;11.68;5.22;;;1.10;99.90;;;;;;4960144;28;20378;-84
2024/01/21 01:34:42;;;;;;;10.75;5.20;;;1.20;99.90;;;;;;4952578;28;20039;-83
2024/01/21 01:37:09;;;;;;;11.32;5.65;;;0.80;99.90;;;;;;4937303;28;20075;-84
2024/01/21 01:39:35;;;;;;;14.18;5.07;;;2.60;99.90;;;;;;4936739;28;20054;-83
2024/01/21 01:42:01;;;;;;;10.70;4.95;;;1.40;99.90;;;;;;4937127;28;20046;-83
2024/01/21 01:44:27;;;;;;;10.32;4.60;;;0.90;99.90;;;;;;4967309;28;20635;-83
2024/01/21 01:46:53;;;;;;;10.55;4.75;;;2.10;99.90;;;;;;4981621;28;20126;-83
2024/01/21 01:49:20;;;;;;;12.15;4.68;;;0.90;99.90;;;;;;4981087;28;20035;-83
2024/01/21 01:51:46;;;;;;;10.82;4.55;;;0.90;99.90;;;;;;4981873;28;20090;-83
2024/01/21 01:54:12;;;;;;;11.68;4.80;;;2.00;99.90;;;;;;4956759;28;20574;-83
2024/01/21 01:56:39;;;;;;;10.73;4.63;;;1.70;99.90;;;;;;4924287;28;20045;-83
2024/01/21 01:59:09;;;;;;;10.52;4.20;;;2.30;99.90;;;;;;5005777;28;20038;-83
2024/01/21 02:01:37;;;;;;;10.25;4.72;;;1.00;99.90;;;;;;4954371;28;20099;-83
2024/01/21 02:04:04;;;;;;;11.60;4.38;;;1.20;99.90;;;;;;4957334;28;20034;-83
2024/01/21 02:06:30;;;;;;;10.55;4.50;;;1.00;99.90;;;;;;4938756;28;20043;-83
2024/01/21 02:08:57;;;;;;;10.43;4.32;;;1.00;99.90;;;;;;4972213;28;20054;-83
2024/01/21 02:11:23;;;;;;;9.70;3.95;;;1.00;99.90;;;;;;4967246;28;20181;-83
2024/01/21 02:13:49;;;;;;;10.07;4.13;;;2.00;99.90;;;;;;4955789;28;20540;-83
2024/01/21 02:16:15;;;;;;;10.07;4.00;;;1.10;99.90;;;;;;4973612;28;20066;-83
2024/01/21 02:18:45;;;;;;;10.57;4.13;;;1.00;99.90;;;;;;4972140;28;20050;-83
2024/01/21 02:21:12;;;;;;;11.73;4.65;;;1.20;99.90;;;;;;4972078;28;20140;-83
2024/01/21 02:23:38;;;;;;;9.63;4.05;;;1.00;99.90;;;;;;4929730;28;20557;-83
2024/01/21 02:26:04;;;;;;;11.00;3.90;;;1.50;99.90;;;;;;4971970;28;20179;-83
2024/01/21 02:28:29;;;;;;;9.77;4.00;;;1.60;99.90;;;;;;4988430;28;20182;-83
2024/01/21 02:30:55;;;;;;;8.80;3.67;;;1.10;99.90;;;;;;4971577;28;20229;-83
2024/01/21 02:33:21;;;;;;;9.93;4.20;;;1.00;99.90;;;;;;4971496;28;20027;-83
2024/01/21 02:35:47;;;;;;;8.30;3.38;;;1.60;99.90;;;;;;4969517;28;20061;-83
2024/01/21 02:38:13;;;;;;;9.65;3.80;;;1.50;99.90;;;;;;4985867;28;20043;-83
2024/01/21 02:40:39;;;;;;;9.93;4.05;;;0.90;99.90;;;;;;4987087;28;20035;-83
2024/01/21 02:43:07;;;;;;;10.13;3.55;;;1.00;99.90;;;;;;4971500;28;20121;-83
2024/01/21 02:45:33;;;;;;;9.77;3.60;;;1.00;99.90;;;;;;4974587;28;20210;-83
2024/01/21 02:47:59;;;;;;;9.02;3.60;;;1.00;99.90;;;;;;4957574;28;20042;-83
2024/01/21 02:50:24;;;;;;;9.38;3.60;;;1.70;99.90;;;;;;4942589;28;20035;-83
2024/01/21 02:52:50;;;;;;;10.65;3.67;;;1.00;99.90;;;;;;4970034;28;20081;-83
2024/01/21 02:55:16;;;;;;;10.65;3.30;;;1.00;99.90;;;;;;4971620;28;20134;-83
2024/01/21 02:57:41;;;;;;;8.55;3.38;;;2.70;99.90;;;;;;4966098;28;20122;-83
2024/01/21 03:00:08;;;;;;;8.05;3.22;;;2.20;99.90;;;;;;4979824;28;20043;-83
2024/01/21 03:02:34;;;;;;;9.35;3.13;;;1.10;99.90;;;;;;4955771;28;20053;-83
2024/01/21 03:04:59;;;;;;;8.88;3.30;;;1.90;99.90;;;;;;4955607;28;20380;-83
2024/01/21 03:07:25;;;;;;;8.00;3.17;;;1.50;99.90;;;;;;4954745;28;20583;-83
2024/01/21 03:09:51;;;;;;;8.13;3.03;;;1.10;99.90;;;;;;4982348;28;20543;-83
2024/01/21 03:12:17;;;;;;;9.38;3.47;;;1.90;99.90;;;;;;4971035;28;20046;-83
2024/01/21 03:14:42;;;;;;;8.05;2.70;;;1.10;99.90;;;;;;4957796;28;20043;-83
2024/01/21 03:17:09;;;;;;;8.73;3.13;;;1.90;99.90;;;;;;4952828;28;20178;-83
2024/01/21 03:19:34;;;;;;;8.13;2.97;;;2.70;99.90;;;;;;5011551;28;20053;-84
2024/01/21 03:22:00;;;;;;;8.70;2.95;;;1.10;99.90;;;;;;4954947;28;20047;-83
2024/01/21 03:24:26;;;;;;;7.53;2.80;;;1.10;99.90;;;;;;4972640;28;20082;-83
2024/01/21 03:26:52;;;;;;;6.82;2.60;;;1.20;99.90;;;;;;4968195;28;20053;-83
2024/01/21 03:29:18;;;;;;;8.25;3.10;;;1.20;99.90;;;;;;5002628;28;20511;-83
2024/01/21 03:31:43;;;;;;;8.50;3.17;;;1.90;99.90;;;;;;4979379;28;20101;-83
2024/01/21 03:34:09;;;;;;;8.13;2.83;;;1.20;99.90;;;;;;4923297;28;20447;-83
2024/01/21 03:36:35;;;;;;;7.20;2.50;;;1.20;99.90;;;;;;4954660;28;20051;-83
2024/01/21 03:39:01;;;;;;;6.38;2.30;;;2.70;99.90;;;;;;4938110;28;20042;-83
2024/01/21 03:41:26;;;;;;;7.43;2.72;;;1.20;99.90;;;;;;4961145;28;20081;-83
2024/01/21 03:43:52;;;;;;;7.35;2.42;;;1.60;99.90;;;;;;4934315;28;20747;-83
2024/01/21 03:46:18;;;;;;;8.30;2.70;;;2.50;99.90;;;;;;4973357;28;20105;-83
2024/01/21 03:48:44;;;;;;;7.00;2.60;;;1.30;99.90;;;;;;4961733;28;20449;-83
2024/01/21 03:51:10;;;;;;;6.18;2.38;;;1.10;99.90;;;;;;4952325;28;20121;-83
2024/01/21 03:53:39;;;;;;;8.50;2.53;;;1.10;99.90;;;;;;4986897;28;20101;-83
2024/01/21 03:56:06;;;;;;;6.88;2.38;;;1.10;99.90;;;;;;4990523;28;20050;-83
2024/01/21 03:58:31;;;;;;;8.13;2.60;;;1.10;99.90;;;;;;4970657;28;20049;-83
2024/01/21 04:00:57;;;;;;;6.10;2.10;;;2.10;99.90;;;;;;4937389;28;20190;-83
2024/01/21 04:03:23;;;;;;;6.45;2.13;;;1.10;99.90;;;;;;5018199;28;20065;-83
2024/01/21 04:05:48;;;;;;;6.72;2.20;;;2.30;99.90;;;;;;4970465;28;20511;-83
2024/01/21 04:08:14;;;;;;;6.78;2.42;;;1.70;99.90;;;;;;4954095;28;20129;-83
2024/01/21 04:10:40;;;;;;;6.03;2.10;;;1.10;99.90;;;;;;5003253;28;20034;-83
2024/01/21 04:13:06;;;;;;;6.43;2.08;;;1.10;99.90;;;;;;4976097;28;20043;-83
2024/01/21 04:15:31;;;;;;;5.82;2.03;;;1.10;99.90;;;;;;4970183;28;20094;-83
2024/01/21 04:17:57;;;;;;;6.47;2.10;;;1.40;99.90;;;;;;4953605;28;20057;-83
2024/01/21 04:20:23;;;;;;;5.00;1.90;;;2.00;99.90;;;;;;4956901;28;20081;-83
2024/01/21 04:22:49;;;;;;;4.90;1.80;;;1.10;99.90;;;;;;4954754;28;20078;-83
2024/01/21 04:25:14;;;;;;;6.35;2.10;;;2.10;99.90;;;;;;4931526;28;20051;-83
2024/01/21 04:27:40;;;;;;;5.35;2.00;;;1.50;99.90;;;;;;4924312;28;20117;-83
2024/01/21 04:30:06;;;;;;;5.72;2.03;;;1.20;99.90;;;;;;4989335;28;20043;-83
2024/01/21 04:32:32;;;;;;;6.32;2.20;;;1.20;99.90;;;;;;4952761;28;20118;-83
2024/01/21 04:34:58;;;;;;;5.13;1.92;;;2.90;99.90;;;;;;4953562;28;20118;-83
2024/01/21 04:37:24;;;;;;;5.22;1.90;;;1.30;99.90;;;;;;4953387;28;20583;-83
2024/01/21 04:39:49;;;;;;;7.30;2.22;;;2.70;99.90;;;;;;4933692;28;20538;-84
2024/01/21 04:42:15;;;;;;;5.45;2.20;;;2.10;99.90;;;;;;4961003;28;20305;-83
2024/01/21 04:44:41;;;;;;;4.90;2.03;;;2.10;99.90;;;;;;4954509;28;20571;-83
2024/01/21 04:47:06;;;;;;;5.95;2.10;;;2.10;99.90;;;;;;4924191;28;20109;-83
2024/01/21 04:49:32;;;;;;;5.68;2.00;;;1.30;99.90;;;;;;4922061;28;20435;-83
2024/01/21 04:51:58;;;;;;;4.78;1.90;;;1.40;99.90;;;;;;4935813;28;20043;-83
2024/01/21 04:54:23;;;;;;;4.97;1.88;;;1.40;99.90;;;;;;4954632;28;20508;-83
2024/01/21 04:56:49;;;;;;;5.28;2.00;;;1.40;99.90;;;;;;4922922;28;20209;-83
2024/01/21 04:59:15;;;;;;;5.40;1.95;;;1.50;99.90;;;;;;4969439;28;20054;-83
2024/01/21 05:01:40;;;;;;;5.50;2.00;;;1.50;99.90;;;;;;4975199;28;20054;-83
2024/01/21 05:04:06;;;;;;;4.38;1.80;;;1.50;99.90;;;;;;4942106;28;20027;-83
2024/01/21 05:06:32;;;;;;;5.47;2.00;;;1.50;99.90;;;;;;4951349;28;20054;-83
2024/01/21 05:08:58;;;;;;;6.35;2.17;;;2.20;99.90;;;;;;4960150;28;20067;-83
2024/01/21 05:11:23;;;;;;;4.93;1.88;;;2.50;99.90;;;;;;4922394;28;20126;-84
2024/01/21 05:13:49;;;;;;;6.07;2.10;;;1.60;99.90;;;;;;4967731;28;20039;-83
2024/01/21 05:16:15;;;;;;;5.47;1.92;;;1.60;99.90;;;;;;4954161;28;20046;-83
2024/01/21 05:18:41;;;;;;;5.85;2.05;;;1.60;99.90;;;;;;5002201;28;20523;-83
2024/01/21 05:21:06;;;;;;;5.82;1.98;;;1.90;99.90;;;;;;4969775;28;20050;-83
2024/01/21 05:23:33;;;;;;;5.43;2.20;;;2.70;99.90;;;;;;4997051;28;20431;-83
2024/01/21 05:25:59;;;;;;;5.35;1.95;;;1.70;99.90;;;;;;4974334;28;20090;-84
2024/01/21 05:28:24;;;;;;;5.82;1.98;;;3.40;99.90;;;;;;5014431;28;20168;-83
2024/01/21 05:30:50;;;;;;;5.25;2.00;;;2.40;99.90;;;;;;4956685;28;20039;-83
2024/01/21 05:33:16;;;;;;;5.60;2.00;;;1.70;99.90;;;;;;4972326;28;20034;-83
2024/01/21 05:35:41;;;;;;;4.47;1.80;;;3.00;99.90;;;;;;5005010;28;20039;-83
2024/01/21 05:38:08;;;;;;;6.18;2.13;;;2.60;99.90;;;;;;4980224;28;20038;-83
2024/01/21 05:40:34;;;;;;;6.47;2.10;;;3.20;99.90;;;;;;4941745;28;20105;-83
2024/01/21 05:43:01;;;;;;;5.47;2.00;;;1.60;99.90;;;;;;4934375;28;20079;-83
2024/01/21 05:45:27;;;;;;;6.10;2.10;;;1.60;99.90;;;;;;4989465;28;20275;-83
2024/01/21 05:47:53;;;;;;;6.25;2.03;;;2.30;99.90;;;;;;4972834;28;20039;-83
2024/01/21 05:50:18;;;;;;;6.75;2.33;;;2.40;99.90;;;;;;4974389;28;20035;-83
2024/01/21 05:52:44;;;;;;;5.80;2.10;;;1.90;99.90;;;;;;4974121;28;20382;-83
2024/01/21 05:55:10;;;;;;;6.28;2.08;;;2.90;99.90;;;;;;4948886;28;20130;-83
2024/01/21 05:57:36;;;;;;;6.38;2.40;;;1.60;99.90;;;;;;4984347;28;20038;-83
2024/01/21 06:00:02;;;;;;;5.07;1.92;;;1.60;99.90;;;;;;4954952;28;20043;-83
2024/01/21 06:02:28;;;;;;;7.22;2.40;;;1.60;99.90;;;;;;4988667;28;20049;-83
2024/01/21 06:04:53;;;;;;;6.43;2.20;;;3.00;99.90;;;;;;4936914;28;20039;-83
2024/01/21 06:07:19;;;;;;;7.28;2.47;;;1.70;99.90;;;;;;4957493;28;20042;-83
2024/01/21 06:09:46;;;;;;;6.43;2.30;;;3.40;99.90;;;;;;4959822;28;20042;-83
2024/01/21 06:12:11;;;;;;;7.20;2.53;;;1.80;99.90;;;;;;4941144;28;20125;-83
2024/01/21 06:14:37;;;;;;;6.38;2.22;;;1.70;99.90;;;;;;4956672;28;20038;-84
2024/01/21 06:17:03;;;;;;;6.70;2.20;;;2.10;99.90;;;;;;4955679;28;20114;-83
2024/01/21 06:19:29;;;;;;;7.22;2.45;;;2.80;99.90;;;;;;4971933;28;20043;-83
2024/01/21 06:21:54;;;;;;;5.78;2.20;;;3.00;99.90;;;;;;4972390;28;20121;-83
2024/01/21 06:24:20;;;;;;;7.57;2.70;;;1.80;99.90;;;;;;4956147;28;20712;-83
2024/01/21 06:26:46;;;;;;;6.95;2.58;;;1.80;99.90;;;;;;4951004;28;20145;-83
2024/01/21 06:29:13;;;;;;;7.32;2.42;;;1.80;99.90;;;;;;4939866;28;20031;-83
2024/01/21 06:31:39;;;;;;;7.20;2.47;;;1.80;99.90;;;;;;4981701;28;20488;-83
2024/01/21 06:34:04;;;;;;;7.72;2.60;;;2.30;99.90;;;;;;4954559;28;20078;-83
2024/01/21 06:36:30;;;;;;;7.53;2.70;;;1.80;99.90;;;;;;4955038;28;20116;-83
2024/01/21 06:38:56;;;;;;;6.95;2.47;;;3.10;99.90;;;;;;4995805;28;20035;-84
2024/01/21 06:41:22;;;;;;;6.95;2.40;;;2.50;99.90;;;;;;4957925;28;20042;-83
2024/01/21 06:43:48;;;;;;;7.50;2.72;;;1.80;99.90;;;;;;4940534;28;20134;-84
2024/01/21 06:46:15;;;;;;;7.25;2.60;;;2.00;99.90;;;;;;4971172;28;20030;-83
2024/01/21 06:48:41;;;;;;;7.78;2.72;;;1.80;99.90;;;;;;4974216;28;20565;-84
2024/01/21 06:51:11;;;;;;;7.55;2.78;;;1.80;99.90;;;;;;4956673;28;20046;-84
2024/01/21 06:53:37;;;;;;;7.72;2.80;;;3.20;99.90;;;;;;4954114;28;20547;-83
2024/01/21 06:56:07;;;;;;;7.40;2.83;;;3.00;99.90;;;;;;4923259;28;20054;-84
2024/01/21 06:58:36;;;;;;;8.38;2.80;;;1.80;99.90;;;;;;4971280;28;20346;-84
2024/01/21 07:01:02;;;;;;;8.82;3.17;;;2.60;99.90;;;;;;5009517;28;20034;-83
2024/01/21 07:03:28;;;;;;;7.88;3.00;;;1.80;99.90;;;;;;5004005;28;20050;-84
2024/01/21 07:05:54;;;;;;;10.57;3.50;;;1.80;99.90;;;;;;4919535;29;20431;-84
2024/01/21 07:08:20;;;;;;;8.55;3.08;;;1.80;99.90;;;;;;4955641;28;20054;-83
2024/01/21 07:10:45;;;;;;;8.80;3.28;;;3.60;99.90;;;;;;4949786;28;20030;-83
2024/01/21 07:13:11;;;;;;;8.52;3.20;;;2.40;99.90;;;;;;4980081;28;20509;-84
2024/01/21 07:15:38;;;;;;;8.55;3.30;;;2.20;99.90;;;;;;4957645;28;20045;-83
2024/01/21 07:18:06;;;;;;;7.38;2.95;;;1.80;99.90;;;;;;4984827;28;20078;-84
2024/01/21 07:20:32;;;;;;;8.48;3.08;;;1.80;99.90;;;;;;4951656;28;20034;-84
2024/01/21 07:22:58;;;;;;;7.88;3.00;;;2.40;99.90;;;;;;4970663;28;20047;-84
2024/01/21 07:25:24;;;;;;;8.93;3.13;;;1.80;99.90;;;;;;4952923;28;20049;-84
2024/01/21 07:27:50;;;;;;;9.10;3.42;;;1.90;99.90;;;;;;4962616;28;20533;-84
2024/01/21 07:30:17;;;;;;;8.73;3.33;;;1.90;99.90;;;;;;4967610;28;20048;-83
2024/01/21 07:32:43;;;;;;;9.43;3.92;;;1.90;99.90;;;;;;4983203;28;20118;-83
2024/01/21 07:35:09;;;;;;;8.55;3.10;;;1.90;99.90;;;;;;4950697;28;20043;-84
2024/01/21 07:37:35;;;;;;;8.95;3.40;;;1.90;99.90;;;;;;4964350;28;20038;-83
2024/01/21 07:40:03;;;;;;;8.48;3.28;;;1.90;99.90;;;;;;4970800;28;20038;-83
2024/01/21 07:42:28;;;;;;;9.82;4.10;;;1.90;99.90;;;;;;4955272;28;20039;-83
2024/01/21 07:44:54;;;;;;;8.30;2.97;;;1.90;99.90;;;;;;4956786;28;20027;-83
2024/01/21 07:47:20;;;;;;;10.70;3.70;;;1.90;99.90;;;;;;4971412;28;20042;-83
2024/01/21 07:49:46;;;;;;;9.05;3.60;;;2.10;99.90;;;;;;4954758;28;20046;-83
2024/01/21 07:52:12;;;;;;;9.10;3.65;;;2.20;99.90;;;;;;4956556;28;20038;-83
2024/01/21 07:54:38;;;;;;;8.88;3.58;;;2.20;99.90;;;;;;4975905;28;20101;-83
2024/01/21 07:57:05;;;;;;;8.93;3.70;;;2.60;99.90;;;;;;4985422;28;20121;-83
2024/01/21 07:59:30;;;;;;;9.13;3.58;;;1.90;99.90;;;;;;4967779;28;20061;-83
2024/01/21 08:01:56;;;;;;;9.73;3.58;;;2.40;99.90;;;;;;4958009;28;20043;-83
2024/01/21 08:04:22;;;;;;;8.43;3.33;;;2.90;99.90;;;;;;4953195;28;20508;-83
2024/01/21 08:06:48;;;;;;;8.30;3.33;;;1.90;99.90;;;;;;4974135;28;20117;-83
2024/01/21 08:09:15;;;;;;;8.85;3.30;;;2.70;99.90;;;;;;4965546;28;20146;-83
2024/01/21 08:11:41;;;;;;;8.95;3.40;;;1.90;99.90;;;;;;4942924;28;20046;-83
2024/01/21 08:14:07;;;;;;;7.90;3.40;;;2.20;99.90;;;;;;4961822;28;20108;-84
2024/01/21 08:16:33;;;;;;;8.63;3.40;;;3.30;99.90;;;;;;4939493;28;20049;-83
2024/01/21 08:18:58;;;;;;;9.43;3.67;;;1.90;99.90;;;;;;4998010;28;20047;-83
2024/01/21 08:21:24;;;;;;;8.75;3.50;;;1.90;99.90;;;;;;4969051;28;20054;-83
2024/01/21 08:23:51;;;;;;;8.40;3.53;;;3.50;99.90;;;;;;4969856;28;20074;-83
2024/01/21 08:26:17;;;;;;;8.73;3.55;;;1.90;99.90;;;;;;4968696;28;20055;-83
2024/01/21 08:28:43;;;;;;;8.43;3.60;;;1.90;99.90;;;;;;4983519;28;20098;-83
2024/01/21 08:31:09;;;;;;;9.27;3.85;;;3.40;99.90;;;;;;4951800;28;20516;-84
2024/01/21 08:33:35;;;;;;;8.45;3.30;;;2.00;99.90;;;;;;4948889;28;20086;-83
2024/01/21 08:36:02;;;;;;;8.75;3.65;;;2.10;99.90;;;;;;4981345;28;20119;-83
2024/01/21 08:38:28;;;;;;;9.05;3.67;;;2.00;99.90;;;;;;4943824;28;20042;-83
2024/01/21 08:40:54;;;;;;;8.35;3.67;;;2.60;99.90;;;;;;4985222;28;20041;-83
2024/01/21 08:43:20;;;;;;;9.23;3.67;;;2.70;99.90;;;;;;4968382;28;20089;-84
2024/01/21 08:45:46;;;;;;;9.02;3.80;;;2.50;99.90;;;;;;4969515;28;20058;-85
2024/01/21 08:48:11;;;;;;;8.88;3.55;;;2.10;99.90;;;;;;4968394;28;20133;-85
2024/01/21 08:50:37;;;;;;;9.43;4.00;;;2.10;99.90;;;;;;4955110;28;20038;-85
2024/01/21 08:53:03;;;;;;;8.63;3.60;;;2.00;99.90;;;;;;4953060;28;20060;-85
2024/01/21 08:55:29;;;;;;;8.73;3.75;;;2.10;99.90;;;;;;4967334;28;20494;-84
2024/01/21 08:57:54;;;;;;;9.05;3.75;;;2.00;99.90;;;;;;4967946;28;20041;-84
2024/01/21 09:00:20;;;;;;;8.68;3.53;;;2.10;99.90;;;;;;4962287;28;20130;-85
2024/01/21 09:02:46;;;;;;;9.93;4.10;;;2.10;99.90;;;;;;4985630;28;20085;-85
2024/01/21 09:05:13;;;;;;;9.55;3.70;;;2.20;99.90;;;;;;4970280;28;20447;-84
2024/01/21 09:07:39;;;;;;;8.23;3.45;;;3.00;99.90;;;;;;4967319;28;20035;-84
2024/01/21 09:10:07;;;;;;;8.10;3.33;;;2.20;99.90;;;;;;4930975;28;20112;-85
2024/01/21 09:12:33;;;;;;;9.73;4.30;;;2.30;99.90;;;;;;4964768;28;20051;-84
2024/01/21 09:14:59;;;;;;;10.07;3.80;;;1.90;99.90;;;;;;4978876;28;20038;-84
2024/01/21 09:17:25;;;;;;;8.63;3.72;;;4.00;99.90;;;;;;4982561;28;20038;-84
2024/01/21 09:19:51;;;;;;;9.05;3.67;;;3.10;99.90;;;;;;4916356;28;20563;-84
2024/01/21 09:22:16;;;;;;;10.10;4.00;;;3.30;99.90;;;;;;4961822;28;20030;-85
2024/01/21 09:24:42;;;;;;;9.00;3.70;;;2.30;99.90;;;;;;4985065;28;20446;-85
2024/01/21 09:27:08;;;;;;;10.20;3.70;;;2.80;99.90;;;;;;4955103;28;20046;-84
2024/01/21 09:29:34;;;;;;;8.80;3.88;;;3.50;99.90;;;;;;4964679;28;20158;-85
2024/01/21 09:31:59;;;;;;;9.18;3.63;;;3.50;99.90;;;;;;4976530;28;20381;-85
2024/01/21 09:34:25;;;;;;;8.52;3.45;;;2.40;99.90;;;;;;4936429;28;20073;-85
2024/01/21 09:36:52;;;;;;;10.05;4.53;;;2.50;99.90;;;;;;4971990;28;20294;-85
2024/01/21 09:39:18;;;;;;;8.77;3.60;;;2.50;99.90;;;;;;4951734;28;20158;-85
2024/01/21 09:41:50;;;;;;;9.18;3.95;;;3.50;99.90;;;;;;4935037;28;20524;-85
2024/01/21 09:44:27;;;;;;;8.85;3.78;;;2.60;99.90;;;;;;4981073;28;20047;-84
2024/01/21 09:46:58;;;;;;;9.68;3.83;;;2.60;99.90;;;;;;5001601;28;20038;-84
2024/01/21 09:49:24;;;;;;;9.20;3.97;;;2.60;99.90;;;;;;4984434;28;20397;-85
2024/01/21 09:51:52;;;;;;;9.00;3.92;;;3.30;99.90;;;;;;4951316;28;20050;-85
2024/01/21 09:54:19;;;;;;;9.18;4.00;;;2.90;99.90;;;;;;4984618;28;20548;-84
2024/01/21 09:56:44;;;;;;;8.95;3.50;;;2.70;99.90;;;;;;4968358;28;20039;-84
2024/01/21 09:59:11;;;;;;;9.00;3.80;;;3.20;99.90;;;;;;4984867;28;20448;-84
2024/01/21 10:01:39;;;;;;;9.88;4.10;;;2.70;99.90;;;;;;4968702;28;20106;-84
2024/01/21 10:04:06;;;;;;;10.30;4.00;;;2.70;99.90;;;;;;4968674;28;20114;-84
2024/01/21 10:06:33;;;;;;;8.50;3.78;;;3.90;99.90;;;;;;4968781;28;20364;-84
2024/01/21 10:09:21;;;;;;;8.90;3.97;;;3.30;99.90;;;;;;4997340;28;20034;-84
2024/01/21 10:11:52;;;;;;;10.13;4.10;;;2.90;99.90;;;;;;4994688;28;20039;-84
2024/01/21 10:14:18;;;;;;;11.10;4.10;;;2.90;99.90;;;;;;4959535;28;20066;-84
2024/01/21 10:16:44;;;;;;;11.40;4.35;;;2.90;99.90;;;;;;4947289;28;20078;-84
2024/01/21 10:19:36;;;;;;;10.55;4.32;;;4.60;99.90;;;;;;4936180;28;20042;-85
2024/01/21 10:22:08;;;;;;;9.90;4.00;;;3.00;99.90;;;;;;4968458;28;20134;-84
2024/01/21 10:24:38;;;;;;;9.57;4.00;;;3.00;99.90;;;;;;4984246;28;20597;-85
2024/01/21 10:27:07;;;;;;;8.52;3.60;;;3.00;99.90;;;;;;4952147;28;20102;-85
2024/01/21 10:29:34;;;;;;;8.80;3.80;;;1.20;99.90;;;;;;4955109;28;20050;-84
2024/01/21 10:31:59;;;;;;;9.38;4.00;;;3.50;99.90;;;;;;4953909;28;20105;-85
2024/01/21 10:34:27;;;;;;;9.95;4.00;;;3.20;99.90;;;;;;4997752;28;20467;-84
2024/01/21 10:36:54;;;;;;;10.25;4.05;;;3.30;99.90;;;;;;4954620;28;20293;-84
2024/01/21 10:39:22;;;;;;;10.25;4.35;;;3.40;99.90;;;;;;4971167;28;20289;-84
2024/01/21 10:41:48;;;;;;;9.30;4.05;;;3.40;99.90;;;;;;4971716;28;20057;-84
2024/01/21 10:44:15;;;;;;;10.15;4.38;;;3.90;99.90;;;;;;4970735;28;20035;-84
2024/01/21 10:46:42;;;;;;;9.30;3.95;;;3.50;99.90;;;;;;4971486;28;20092;-85
2024/01/21 10:49:09;;;;;;;9.15;4.18;;;;;;;;;;4971575;28;20038;-85
2024/01/21 10:51:35;;;;;;;9.88;4.13;;;3.50;99.90;;;;;;4967682;28;20093;-85
2024/01/21 10:54:02;;;;;;;9.23;3.95;;;3.50;99.90;;;;;;4986133;28;20522;-84
2024/01/21 10:56:28;;;;;;;9.32;3.88;;;3.60;99.90;;;;;;4986410;28;20492;-84
2024/01/21 10:58:54;;;;;;;9.75;4.40;;;3.60;99.90;;;;;;4970441;28;20046;-84
2024/01/21 11:01:21;;;;;;;11.48;4.55;;;3.60;99.90;;;;;;4970944;28;20069;-84
2024/01/21 11:03:49;;;;;;;10.27;4.38;;;3.70;99.90;;;;;;4952175;28;20660;-84
2024/01/21 11:06:16;;;;;;;10.07;4.10;;;3.70;99.90;;;;;;4992384;28;20081;-84
2024/01/21 11:08:43;;;;;;;9.85;4.30;;;3.70;99.90;;;;;;4937015;28;20385;-84
2024/01/21 11:11:08;;;;;;;10.63;4.43;;;4.40;99.90;;;;;;4972288;28;20137;-84
2024/01/21 11:13:49;;;;;;;9.02;3.78;;;3.70;99.90;;;;;;4971988;28;20043;-84
2024/01/21 11:16:28;;;;;;;8.77;3.90;;;4.20;99.90;;;;;;4967219;28;20117;-84
2024/01/21 11:18:57;;;;;;;9.75;3.88;;;3.80;99.90;;;;;;4981828;28;20975;-85
2024/01/21 11:21:28;;;;;;;10.35;4.00;;;3.80;99.90;;;;;;4954967;28;20049;-84
2024/01/21 11:24:14;;;;;;;9.82;4.07;;;4.10;99.90;;;;;;4971701;28;20046;-84
2024/01/21 11:26:47;;;;;;;8.82;3.83;;;3.90;99.90;;;;;;4956051;28;20055;-84
2024/01/21 11:29:23;;;;;;;11.95;4.25;;;3.90;99.90;;;;;;5013873;28;20094;-84
2024/01/21 11:31:52;;;;;;;9.80;4.20;;;3.90;99.90;;;;;;4981171;28;20485;-84
2024/01/21 11:34:19;;;;;;;8.50;3.92;;;3.90;99.90;;;;;;4983561;28;20046;-84
2024/01/21 11:36:45;;;;;;;10.35;4.10;;;3.90;99.90;;;;;;4965227;28;20042;-86
2024/01/21 11:39:11;;;;;;;9.38;4.35;;;4.00;99.90;;;;;;4983322;28;20477;-84
2024/01/21 11:41:42;;;;;;;10.18;4.47;;;4.00;99.90;;;;;;4967437;28;20038;-85
2024/01/21 11:44:09;;;;;;;8.35;3.65;;;4.00;99.90;;;;;;4966426;28;20116;-84
2024/01/21 11:46:36;;;;;;;10.23;4.40;;;4.00;99.90;;;;;;4966559;28;20042;-85
2024/01/21 11:49:03;;;;;;;9.55;4.28;;;4.00;99.90;;;;;;4968034;28;20043;-84
2024/01/21 11:51:28;;;;;;;10.10;4.43;;;4.00;99.90;;;;;;4965982;28;20180;-85
2024/01/21 11:53:54;;;;;;;8.93;3.97;;;4.10;99.90;;;;;;4948450;28;20122;-85
2024/01/21 11:56:20;;;;;;;10.07;4.20;;;2.70;99.90;;;;;;4983254;28;20042;-85
2024/01/21 11:58:45;;;;;;;9.85;4.35;;;4.10;99.90;;;;;;4969523;28;20039;-85
2024/01/21 12:01:11;;;;;;;10.00;4.25;;;4.10;99.90;;;;;;4950551;28;20154;-85
2024/01/21 12:03:37;;;;;;;9.93;4.10;;;4.10;99.90;;;;;;4963140;28;20086;-85
2024/01/21 12:06:04;;;;;;;9.80;4.72;;;4.10;99.90;;;;;;4955504;28;20037;-85
2024/01/21 12:08:31;;;;;;;11.77;4.93;;;4.10;99.90;;;;;;4968299;28;20039;-85
2024/01/21 12:10:57;;;;;;;9.70;4.40;;;5.90;99.90;;;;;;4997376;28;20390;-85
2024/01/21 12:13:22;;;;;;;9.52;4.18;;;4.10;99.90;;;;;;4912721;28;20054;-85
2024/01/21 12:15:51;;;;;;;9.30;4.10;;;4.10;99.90;;;;;;4965218;28;20126;-85
2024/01/21 12:18:17;;;;;;;9.85;4.32;;;4.40;99.90;;;;;;4982511;28;20046;-85
2024/01/21 12:20:44;;;;;;;9.98;4.22;;;4.10;99.90;;;;;;4965482;28;20035;-85
2024/01/21 12:23:21;;;;;;;8.93;4.10;;;4.10;99.90;;;;;;4964004;28;20049;-85
2024/01/21 12:25:48;;;;;;;9.95;4.45;;;4.10;99.90;;;;;;4981432;28;20524;-85
2024/01/21 12:28:14;;;;;;;11.70;4.93;;;4.00;99.90;;;;;;4965999;28;20116;-86
2024/01/21 12:30:39;;;;;;;12.02;4.65;;;4.00;99.90;;;;;;4964610;28;20050;-85
2024/01/21 12:33:05;;;;;;;10.50;4.60;;;4.10;99.90;;;;;;4965398;28;20039;-84
2024/01/21 12:35:31;;;;;;;11.30;4.75;;;4.00;99.90;;;;;;4964048;28;20535;-85
2024/01/21 12:37:59;;;;;;;10.18;4.78;;;4.00;99.90;;;;;;4945752;28;20035;-86
2024/01/21 12:40:26;;;;;;;10.27;4.65;;;4.10;99.90;;;;;;4981913;28;20054;-85
2024/01/21 12:42:52;;;;;;;10.60;4.53;;;4.10;99.90;;;;;;4953381;28;20039;-85
2024/01/21 12:45:18;;;;;;;11.05;5.13;;;4.00;99.90;;;;;;4964693;28;20037;-85
2024/01/21 12:47:44;;;;;;;11.02;4.90;;;4.00;99.90;;;;;;4974344;28;20477;-85
2024/01/21 12:50:10;;;;;;;11.13;4.90;;;4.10;99.90;;;;;;4981410;28;20046;-85
2024/01/21 12:52:37;;;;;;;10.75;4.85;;;4.10;99.90;;;;;;4948899;28;20082;-86